Time;durP1;ratioP1;P1;durP2;ratioP2;P2;SDS_P1;SDS_P2;PMS_P1;PMS_P2;Temp;Humidity;BMP_temperature;BMP_pressure;BME280_temperature;BME280_humidity;BME280_pressure;Samples;Min_cycle;Max_cycle;Signal;HPM_P1;HPM_P2
2023/09/27 00:01:21;;;;;;;72.53;26.83;;;;;;;;;;6289089;28;20049;-67
2023/09/27 00:04:22;;;;;;;56.38;24.95;;;;;;;;;;6286418;28;20075;-65
2023/09/27 00:07:22;;;;;;;48.78;24.17;;;;;;;;;;6287809;28;20052;-67
2023/09/27 00:10:23;;;;;;;65.35;22.58;;;;;;;;;;6287047;28;20044;-69
2023/09/27 00:13:24;;;;;;;66.63;22.53;;;;;;;;;;6287408;28;20044;-68
2023/09/27 00:16:24;;;;;;;88.03;24.70;;;;;;;;;;6287723;28;20067;-68
2023/09/27 00:19:25;;;;;;;45.13;24.55;;;;;;;;;;6286136;28;20067;-66
2023/09/27 00:22:27;;;;;;;41.78;20.73;;;;;;;;;;6285641;28;20098;-68
2023/09/27 00:25:27;;;;;;;40.97;21.92;;;;;;;;;;6287204;28;20040;-66
2023/09/27 00:28:28;;;;;;;35.63;21.13;;;;;;;;;;6287285;28;20553;-68
2023/09/27 00:31:29;;;;;;;56.25;23.95;;;;;;;;;;6286766;28;20048;-68
2023/09/27 00:34:29;;;;;;;68.22;24.42;;;;;;;;;;6286883;28;20107;-68
2023/09/27 00:37:30;;;;;;;50.67;25.92;;;;;;;;;;6288245;28;20056;-68
2023/09/27 00:40:31;;;;;;;44.33;24.13;;;;;;;;;;6293275;28;20056;-67
2023/09/27 00:43:34;;;;;;;55.30;26.05;;;;;;;;;;6290134;28;20393;-67
2023/09/27 00:46:36;;;;;;;117.93;27.17;;;;;;;;;;6291020;28;21442;-68
2023/09/27 00:49:38;;;;;;;51.78;25.20;;;;;;;;;;6292149;28;20300;-68
2023/09/27 00:52:40;;;;;;;41.42;23.40;;;;;;;;;;6290185;28;20366;-67
2023/09/27 00:55:41;;;;;;;76.55;23.23;;;;;;;;;;6291524;28;20060;-67
2023/09/27 00:58:42;;;;;;;38.42;22.10;;;;;;;;;;6292051;28;20068;-67
2023/09/27 01:01:44;;;;;;;46.50;23.88;;;;;;;;;;6291372;28;20056;-67
2023/09/27 01:04:45;;;;;;;56.53;26.35;;;;;;;;;;6289331;28;20037;-66
2023/09/27 01:07:45;;;;;;;48.20;24.60;;;;;;;;;;6291929;28;20048;-67
2023/09/27 01:10:47;;;;;;;61.47;25.00;;;;;;;;;;6292176;28;20083;-68
2023/09/27 01:13:47;;;;;;;50.10;25.75;;;;;;;;;;6290455;28;20132;-68
2023/09/27 01:16:48;;;;;;;54.47;26.73;;;;;;;;;;6291233;28;20049;-67
2023/09/27 01:19:48;;;;;;;49.85;25.25;;;;;;;;;;6291300;28;20037;-68
2023/09/27 01:23:03;;;;;;;49.97;24.83;;;;;;;;;;6271994;28;20051;-67
2023/09/27 01:26:06;;;;;;;53.05;25.30;;;;;;;;;;6278588;28;20047;-67
2023/09/27 01:29:07;;;;;;;55.58;24.67;;;;;;;;;;6291254;28;20051;-66
2023/09/27 01:32:07;;;;;;;84.20;27.63;;;;;;;;;;6290673;28;20049;-67
2023/09/27 01:35:08;;;;;;;50.58;25.65;;;;;;;;;;6286919;28;20514;-67
2023/09/27 01:38:10;;;;;;;53.78;25.67;;;;;;;;;;6290609;28;20048;-67
2023/09/27 01:41:11;;;;;;;72.75;23.73;;;;;;;;;;6290137;28;20044;-68
2023/09/27 01:44:12;;;;;;;109.47;24.77;;;;;;;;;;6291435;28;20048;-67
2023/09/27 01:47:12;;;;;;;44.17;23.70;;;;;;;;;;6289788;28;20166;-68
2023/09/27 01:50:13;;;;;;;43.13;23.13;;;;;;;;;;6290165;28;20041;-67
2023/09/27 01:53:14;;;;;;;46.60;23.75;;;;;;;;;;6290111;28;20067;-68
2023/09/27 01:56:14;;;;;;;55.10;25.30;;;;;;;;;;6290670;28;20632;-69
2023/09/27 01:59:15;;;;;;;43.45;22.20;;;;;;;;;;6257556;28;20055;-68
2023/09/27 02:02:15;;;;;;;67.13;21.95;;;;;;;;;;6289629;28;20089;-68
2023/09/27 02:05:17;;;;;;;58.05;23.10;;;;;;;;;;6290301;28;20102;-69
2023/09/27 02:08:17;;;;;;;64.30;23.33;;;;;;;;;;6289982;28;20044;-68
2023/09/27 02:11:19;;;;;;;132.52;26.92;;;;;;;;;;6289842;28;20537;-69
2023/09/27 02:14:20;;;;;;;154.48;27.80;;;;;;;;;;6286940;28;20114;-66
2023/09/27 02:17:20;;;;;;;43.85;23.45;;;;;;;;;;6287872;28;20128;-68
2023/09/27 02:20:21;;;;;;;49.83;24.35;;;;;;;;;;6289565;28;20040;-68
2023/09/27 02:23:22;;;;;;;49.55;24.83;;;;;;;;;;6289287;28;20082;-68
2023/09/27 02:26:22;;;;;;;103.28;26.20;;;;;;;;;;6291166;28;20078;-69
2023/09/27 02:29:23;;;;;;;103.80;25.90;;;;;;;;;;6290998;28;20167;-69
2023/09/27 02:32:24;;;;;;;70.57;24.65;;;;;;;;;;6289259;28;20053;-69
2023/09/27 02:35:25;;;;;;;96.43;24.63;;;;;;;;;;6289864;28;20129;-68
2023/09/27 02:38:26;;;;;;;86.95;24.58;;;;;;;;;;6289618;28;20037;-69
2023/09/27 02:41:26;;;;;;;70.07;24.05;;;;;;;;;;6288482;28;20468;-69
2023/09/27 02:44:27;;;;;;;42.65;22.50;;;;;;;;;;6285455;28;20037;-68
2023/09/27 02:47:27;;;;;;;47.83;24.70;;;;;;;;;;6288117;28;20476;-68
2023/09/27 02:50:28;;;;;;;154.55;28.85;;;;;;;;;;6288673;28;20053;-68
2023/09/27 02:53:28;;;;;;;90.50;25.13;;;;;;;;;;6288421;28;20068;-68
2023/09/27 02:56:29;;;;;;;81.55;25.52;;;;;;;;;;6288810;28;20067;-67
2023/09/27 02:59:31;;;;;;;56.47;23.67;;;;;;;;;;6289465;28;20040;-68
2023/09/27 03:02:34;;;;;;;88.85;23.58;;;;;;;;;;6287700;28;20048;-65
2023/09/27 03:05:35;;;;;;;48.25;22.80;;;;;;;;;;6287490;28;20055;-68
2023/09/27 03:08:36;;;;;;;52.30;23.02;;;;;;;;;;6290668;28;20045;-68
2023/09/27 03:11:43;;;;;;;43.40;22.95;;;;;;;;;;6288398;28;20048;-68
2023/09/27 03:14:43;;;;;;;61.38;23.42;;;;;;;;;;6285599;28;20494;-69
2023/09/27 03:17:44;;;;;;;42.85;21.98;;;;;;;;;;6285967;28;20036;-68
2023/09/27 03:20:45;;;;;;;46.80;23.58;;;;;;;;;;6287169;28;20040;-67
2023/09/27 03:23:45;;;;;;;68.93;22.10;;;;;;;;;;6287632;28;20438;-65
2023/09/27 03:26:46;;;;;;;90.82;21.65;;;;;;;;;;6287111;28;20041;-64
2023/09/27 03:29:47;;;;;;;63.50;22.08;;;;;;;;;;6287502;28;20046;-69
2023/09/27 03:32:48;;;;;;;96.80;22.17;;;;;;;;;;6286931;28;20487;-66
2023/09/27 03:35:48;;;;;;;119.60;24.38;;;;;;;;;;6286907;28;20067;-66
2023/09/27 03:38:49;;;;;;;80.00;24.02;;;;;;;;;;6290191;28;20048;-67
2023/09/27 03:41:50;;;;;;;59.65;24.75;;;;;;;;;;6285322;28;20068;-68
2023/09/27 03:44:51;;;;;;;71.75;25.15;;;;;;;;;;6286792;28;20036;-67
2023/09/27 03:47:52;;;;;;;74.32;25.02;;;;;;;;;;6286158;28;20048;-66
2023/09/27 03:50:52;;;;;;;54.28;24.05;;;;;;;;;;6287420;28;20487;-67
2023/09/27 03:53:53;;;;;;;83.60;24.83;;;;;;;;;;6286953;28;20048;-67
2023/09/27 03:56:54;;;;;;;91.90;24.15;;;;;;;;;;6287307;28;20423;-67
2023/09/27 03:59:55;;;;;;;96.43;24.15;;;;;;;;;;6288961;28;20483;-68
2023/09/27 04:02:55;;;;;;;123.65;25.70;;;;;;;;;;6286383;28;20037;-68
2023/09/27 04:05:56;;;;;;;111.93;23.15;;;;;;;;;;6287013;28;20048;-67
2023/09/27 04:08:57;;;;;;;61.28;22.52;;;;;;;;;;6281565;28;20048;-68
2023/09/27 04:11:58;;;;;;;69.63;21.17;;;;;;;;;;6283452;28;20057;-65
2023/09/27 04:14:58;;;;;;;49.28;20.63;;;;;;;;;;6284109;28;20400;-67
2023/09/27 04:17:59;;;;;;;48.67;20.13;;;;;;;;;;6284376;28;20048;-66
2023/09/27 04:21:07;;;;;;;50.30;21.85;;;;;;;;;;6283221;28;20424;-67
2023/09/27 04:24:08;;;;;;;38.15;20.45;;;;;;;;;;6286964;28;20123;-68
2023/09/27 04:27:08;;;;;;;35.10;19.88;;;;;;;;;;6285879;28;20094;-67
2023/09/27 04:30:13;;;;;;;36.85;21.30;;;;;;;;;;6283960;28;20474;-68
2023/09/27 04:33:15;;;;;;;34.55;20.10;;;;;;;;;;6286397;28;20040;-68
2023/09/27 04:36:16;;;;;;;;;;;;;;;;;;6287011;28;20056;-67
2023/09/27 04:39:18;;;;;;;31.20;18.43;;;;;;;;;;6286113;28;20394;-69
2023/09/27 04:42:19;;;;;;;44.67;19.92;;;;;;;;;;6284574;28;20782;-68
2023/09/27 04:45:19;;;;;;;96.05;22.65;;;;;;;;;;6284231;28;20044;-68
2023/09/27 04:48:20;;;;;;;133.68;23.58;;;;;;;;;;6285487;28;20059;-68
2023/09/27 04:51:21;;;;;;;51.42;19.05;;;;;;;;;;6284747;28;20040;-68
2023/09/27 04:54:21;;;;;;;70.90;20.65;;;;;;;;;;6287082;28;20090;-68
2023/09/27 04:57:23;;;;;;;32.50;18.35;;;;;;;;;;6285572;28;20044;-66
2023/09/27 05:00:24;;;;;;;34.15;17.88;;;;;;;;;;6282730;28;20045;-67
2023/09/27 05:03:25;;;;;;;39.55;19.38;;;;;;;;;;6277686;28;21144;-69
2023/09/27 05:06:26;;;;;;;36.17;18.65;;;;;;;;;;6285534;28;20052;-66
2023/09/27 05:09:27;;;;;;;26.25;16.70;;;;;;;;;;6284271;28;20122;-68
2023/09/27 05:12:28;;;;;;;25.95;16.10;;;;;;;;;;6286958;28;20052;-67
2023/09/27 05:15:28;;;;;;;27.75;16.88;;;;;;;;;;6282696;28;20040;-69
2023/09/27 05:18:29;;;;;;;25.25;15.88;;;;;;;;;;6283516;28;20052;-68
2023/09/27 05:21:29;;;;;;;24.75;16.10;;;;;;;;;;6277413;28;20520;-68
2023/09/27 05:24:32;;;;;;;24.52;15.63;;;;;;;;;;6287498;28;20078;-68
2023/09/27 05:27:34;;;;;;;28.83;17.48;;;;;;;;;;6288510;28;20094;-69
2023/09/27 05:30:35;;;;;;;28.27;17.02;;;;;;;;;;6288972;28;20051;-66
2023/09/27 05:33:36;;;;;;;30.60;19.10;;;;;;;;;;6289946;28;20048;-69
2023/09/27 05:36:38;;;;;;;28.75;17.33;;;;;;;;;;6291089;28;20051;-69
2023/09/27 05:39:39;;;;;;;29.15;17.92;;;;;;;;;;6285441;28;20098;-68
2023/09/27 05:42:40;;;;;;;29.83;17.50;;;;;;;;;;6290541;28;20098;-67
2023/09/27 05:45:41;;;;;;;27.23;16.17;;;;;;;;;;6289655;28;20056;-66
2023/09/27 05:48:42;;;;;;;29.42;16.30;;;;;;;;;;6290794;28;20086;-68
2023/09/27 05:51:43;;;;;;;26.65;16.85;;;;;;;;;;6288965;28;20127;-70
2023/09/27 05:54:45;;;;;;;32.03;19.23;;;;;;;;;;6286139;28;20492;-67
2023/09/27 05:57:46;;;;;;;34.47;20.50;;;;;;;;;;6289989;28;20289;-67
2023/09/27 06:00:48;;;;;;;37.38;20.40;;;;;;;;;;6288646;28;20505;-68
2023/09/27 06:03:49;;;;;;;39.03;21.70;;;;;;;;;;6289340;28;20043;-69
2023/09/27 06:06:50;;;;;;;44.40;22.65;;;;;;;;;;6289545;28;20048;-68
2023/09/27 06:09:51;;;;;;;46.93;25.30;;;;;;;;;;6289027;28;20064;-68
2023/09/27 06:12:52;;;;;;;49.10;25.98;;;;;;;;;;6285286;28;20135;-70
2023/09/27 06:15:54;;;;;;;48.08;25.95;;;;;;;;;;6288938;28;20044;-69
2023/09/27 06:18:55;;;;;;;42.53;25.42;;;;;;;;;;6287887;28;20034;-66
2023/09/27 06:21:55;;;;;;;44.75;24.48;;;;;;;;;;6287752;28;20041;-69
2023/09/27 06:24:56;;;;;;;43.67;24.80;;;;;;;;;;6289461;28;20403;-68
2023/09/27 06:27:57;;;;;;;45.87;24.97;;;;;;;;;;6285488;28;20127;-66
2023/09/27 06:30:59;;;;;;;53.13;24.10;;;;;;;;;;6286962;28;20043;-70
2023/09/27 06:34:00;;;;;;;42.40;25.17;;;;;;;;;;6282247;28;20143;-68
2023/09/27 06:37:00;;;;;;;42.63;24.77;;;;;;;;;;6287568;28;20131;-68
2023/09/27 06:40:01;;;;;;;38.58;23.90;;;;;;;;;;6287610;28;20482;-70
2023/09/27 06:43:04;;;;;;;42.47;23.67;;;;;;;;;;6289402;28;20052;-70
2023/09/27 06:46:10;;;;;;;41.17;23.23;;;;;;;;;;6269404;28;20048;-70
2023/09/27 06:49:12;;;;;;;41.63;23.05;;;;;;;;;;6285581;28;20523;-68
2023/09/27 06:52:12;;;;;;;33.08;20.02;;;;;;;;;;6286172;28;20048;-69
2023/09/27 06:55:16;;;;;;;33.47;18.55;;;;;;;;;;6285692;28;20538;-70
2023/09/27 06:58:22;;;;;;;31.73;18.65;;;;;;;;;;6285472;28;20105;-69
2023/09/27 07:01:24;;;;;;;33.80;19.65;;;;;;;;;;6286317;28;20044;-70
2023/09/27 07:04:25;;;;;;;31.27;18.45;;;;;;;;;;6287095;28;20053;-70
2023/09/27 07:07:25;;;;;;;32.58;19.42;;;;;;;;;;6287851;28;20475;-70
2023/09/27 07:10:26;;;;;;;34.80;19.42;;;;;;;;;;6289647;28;20045;-69
2023/09/27 07:13:27;;;;;;;29.43;17.93;;;;;;;;;;6286503;28;20045;-70
2023/09/27 07:16:29;;;;;;;32.77;18.90;;;;;;;;;;6285997;28;20403;-70
2023/09/27 07:19:31;;;;;;;27.30;17.38;;;;;;;;;;6270557;28;20563;-68
2023/09/27 07:22:31;;;;;;;31.08;18.15;;;;;;;;;;6287344;28;20084;-67
2023/09/27 07:25:37;;;;;;;31.77;19.17;;;;;;;;;;6288306;28;20110;-70
2023/09/27 07:28:38;;;;;;;33.40;19.63;;;;;;;;;;6287387;28;20053;-68
2023/09/27 07:31:39;;;;;;;37.60;20.60;;;;;;;;;;6288788;28;20115;-70
2023/09/27 07:34:39;;;;;;;28.47;18.30;;;;;;;;;;6269400;28;20055;-70
2023/09/27 07:37:41;;;;;;;27.67;17.37;;;;;;;;;;6285214;28;20412;-66
2023/09/27 07:40:45;;;;;;;30.07;17.70;;;;;;;;;;6286445;28;20131;-69
2023/09/27 07:43:47;;;;;;;30.77;18.33;;;;;;;;;;6286491;28;20054;-70
2023/09/27 07:46:48;;;;;;;29.45;17.10;;;;;;;;;;6286504;28;20051;-70
2023/09/27 07:49:49;;;;;;;32.40;16.95;;;;;;;;;;6287345;28;20400;-70
2023/09/27 07:52:49;;;;;;;28.00;16.90;;;;;;;;;;6288146;28;20075;-69
2023/09/27 07:55:51;;;;;;;31.60;16.80;;;;;;;;;;6286974;28;20040;-69
2023/09/27 07:58:53;;;;;;;30.90;17.40;;;;;;;;;;6288698;28;20101;-69
2023/09/27 08:01:54;;;;;;;24.75;15.93;;;;;;;;;;6285591;28;20040;-67
2023/09/27 08:04:55;;;;;;;;;;;;;;;;;;6283553;28;20652;-68
2023/09/27 08:07:56;;;;;;;31.33;16.20;;;;;;;;;;6287339;28;19924;-69
2023/09/27 08:10:57;;;;;;;29.60;15.07;;;;;;;;;;6268665;28;20519;-69
2023/09/27 08:13:58;;;;;;;26.33;15.10;;;;;;;;;;6287288;28;20440;-69
2023/09/27 08:16:58;;;;;;;25.43;14.60;;;;;;;;;;6284374;28;20351;-69
2023/09/27 08:19:59;;;;;;;26.03;15.37;;;;;;;;;;6284974;28;20068;-68
2023/09/27 08:23:01;;;;;;;25.13;15.23;;;;;;;;;;6287213;28;20036;-69
2023/09/27 08:26:02;;;;;;;26.52;14.77;;;;;;;;;;6286878;28;20567;-68
2023/09/27 08:29:05;;;;;;;24.53;14.43;;;;;;;;;;6288073;28;20040;-68
2023/09/27 08:32:06;;;;;;;27.70;14.25;;;;;;;;;;6287200;28;20060;-68
2023/09/27 08:35:07;;;;;;;22.93;13.83;;;;;;;;;;6286150;28;20044;-69
2023/09/27 08:38:08;;;;;;;23.37;12.93;;;;;;;;;;6267367;28;20044;-67
2023/09/27 08:41:08;;;;;;;22.30;12.80;;;;;;;;;;6286071;28;20317;-67
2023/09/27 08:44:11;;;;;;;23.23;12.90;;;;;;;;;;6287126;28;21043;-67
2023/09/27 08:47:12;;;;;;;22.83;12.23;;;;;;;;;;6286322;28;20392;-66
2023/09/27 08:50:18;;;;;;;30.07;13.03;;;;;;;;;;6286530;28;20048;-67
2023/09/27 08:53:18;;;;;;;21.00;13.10;;;;;;;;;;6286332;28;20517;-68
2023/09/27 08:56:20;;;;;;;27.40;12.73;;;;;;;;;;6284993;28;20044;-68
2023/09/27 08:59:21;;;;;;;24.95;12.32;;;;;;;;;;6289491;28;20450;-68
2023/09/27 09:02:26;;;;;;;20.87;12.17;;;;;;;;;;6292883;28;20068;-68
2023/09/27 09:05:28;;;;;;;21.38;12.07;;;;;;;;;;6292444;28;20127;-68
2023/09/27 09:08:29;;;;;;;21.10;12.13;;;;;;;;;;6288912;28;20045;-67
2023/09/27 09:11:31;;;;;;;18.97;12.10;;;;;;;;;;6290841;28;20139;-68
2023/09/27 09:14:49;;;;;;;19.35;11.65;;;;;;;;;;6292820;28;20048;-67
2023/09/27 09:17:52;;;;;;;26.65;11.68;;;;;;;;;;6290097;28;20045;-68
2023/09/27 09:20:55;;;;;;;19.50;11.13;;;;;;;;;;6290361;28;20514;-65
2023/09/27 09:23:55;;;;;;;19.48;10.80;;;;;;;;;;6290411;28;20762;-67
2023/09/27 09:27:08;;;;;;;17.35;10.93;;;;;;;;;;6289157;28;20049;-63
2023/09/27 09:30:11;;;;;;;19.67;10.93;;;;;;;;;;6288373;28;20053;-68
2023/09/27 09:33:17;;;;;;;18.20;11.25;;;;;;;;;;6289694;28;20194;-66
2023/09/27 09:36:17;;;;;;;21.55;11.60;;;;;;;;;;6278360;28;20056;-66
2023/09/27 09:39:20;;;;;;;24.60;11.67;;;;;;;;;;6288897;28;20178;-66
2023/09/27 09:42:34;;;;;;;19.75;11.38;;;;;;;;;;6289845;28;20049;-67
2023/09/27 09:45:42;;;;;;;19.38;11.05;;;;;;;;;;6289628;28;20048;-66
2023/09/27 09:48:44;;;;;;;21.02;11.80;;;;;;;;;;6289594;28;20438;-67
2023/09/27 09:51:47;;;;;;;21.27;11.63;;;;;;;;;;6290923;28;20190;-66
2023/09/27 09:54:49;;;;;;;20.90;11.23;;;;;;;;;;6288654;28;20344;-69
2023/09/27 09:58:05;;;;;;;;;;;;;;;;;;6290727;28;20458;-64
2023/09/27 10:01:07;;;;;;;17.02;10.63;;;;;;;;;;6288088;28;19932;-68
2023/09/27 10:04:08;;;;;;;18.17;11.10;;;;;;;;;;6291007;28;20047;-68
2023/09/27 10:07:09;;;;;;;19.33;11.73;;;;;;;;;;6290522;28;20438;-67
2023/09/27 10:10:10;;;;;;;24.95;11.30;;;;;;;;;;6289937;28;20404;-67
2023/09/27 10:13:11;;;;;;;17.87;11.00;;;;;;;;;;6291191;28;20056;-67
2023/09/27 10:16:13;;;;;;;20.50;11.65;;;;;;;;;;6288252;28;20135;-68
2023/09/27 10:19:28;;;;;;;24.83;11.75;;;;;;;;;;6286533;28;20087;-66
2023/09/27 10:22:29;;;;;;;18.13;11.05;;;;;;;;;;6290548;28;20503;-67
2023/09/27 10:25:32;;;;;;;19.47;10.70;;;;;;;;;;6287901;28;20043;-67
2023/09/27 10:29:13;;;;;;;22.80;12.40;;;;;;;;;;6288336;28;20551;-70
2023/09/27 10:32:13;;;;;;;22.65;11.43;;;;;;;;;;6278539;28;20452;-68
2023/09/27 10:35:17;;;;;;;19.60;10.80;;;;;;;;;;6286676;28;20044;-67
2023/09/27 10:38:17;;;;;;;19.60;10.85;;;;;;;;;;6287457;28;20516;-67
2023/09/27 10:41:38;;;;;;;20.00;10.70;;;;;;;;;;6287351;28;20063;-68
2023/09/27 10:44:43;;;;;;;21.33;10.75;;;;;;;;;;6285692;28;20051;-65
2023/09/27 10:47:46;;;;;;;18.83;10.68;;;;;;;;;;6275907;28;20051;-68
2023/09/27 10:50:52;;;;;;;18.48;10.68;;;;;;;;;;6289364;28;20078;-65
2023/09/27 10:53:56;;;;;;;26.58;11.45;;;;;;;;;;6284455;28;20044;-67
2023/09/27 10:56:56;;;;;;;20.42;10.20;;;;;;;;;;6286692;28;20138;-66
2023/09/27 10:59:57;;;;;;;20.30;10.77;;;;;;;;;;6288356;28;20051;-66
2023/09/27 11:02:58;;;;;;;20.85;10.93;;;;;;;;;;6287698;28;20037;-68
2023/09/27 11:06:13;;;;;;;19.55;10.77;;;;;;;;;;6286522;28;20055;-68
2023/09/27 11:09:19;;;;;;;19.98;10.10;;;;;;;;;;6282021;28;20131;-67
2023/09/27 11:12:23;;;;;;;15.57;10.27;;;;;;;;;;6287195;28;20132;-65
2023/09/27 11:15:24;;;;;;;18.52;10.07;;;;;;;;;;6287219;28;20072;-67
2023/09/27 11:18:25;;;;;;;22.23;11.17;;;;;;;;;;6288038;28;20051;-66
2023/09/27 11:21:26;;;;;;;23.90;10.37;;;;;;;;;;6287749;28;20093;-67
2023/09/27 11:24:36;;;;;;;20.58;10.43;;;;;;;;;;6286730;28;20520;-68
2023/09/27 11:27:43;;;;;;;20.75;9.75;;;;;;;;;;6285706;28;20048;-68
2023/09/27 11:30:44;;;;;;;19.60;10.30;;;;;;;;;;6286251;28;20041;-68
2023/09/27 11:33:44;;;;;;;20.45;9.93;;;;;;;;;;6287938;28;20396;-65
2023/09/27 11:36:51;;;;;;;30.43;11.80;;;;;;;;;;6288266;28;20068;-67
2023/09/27 11:39:54;;;;;;;20.90;10.27;;;;;;;;;;6286942;28;20048;-68
2023/09/27 11:42:56;;;;;;;22.17;10.27;;;;;;;;;;6287812;28;20044;-67
2023/09/27 11:45:57;;;;;;;19.90;9.80;;;;;;;;;;6289863;28;20422;-67
2023/09/27 11:49:08;;;;;;;15.75;9.45;;;;;;;;;;6285600;28;20059;-66
2023/09/27 11:52:10;;;;;;;19.05;9.27;;;;;;;;;;6286668;28;20171;-67
2023/09/27 11:55:11;;;;;;;18.98;10.60;;;;;;;;;;6290109;28;20036;-65
2023/09/27 11:58:11;;;;;;;22.70;10.47;;;;;;;;;;6287771;28;20511;-68
2023/09/27 12:01:12;;;;;;;17.20;9.13;;;;;;;;;;6284668;28;20124;-65
2023/09/27 12:04:13;;;;;;;18.57;10.67;;;;;;;;;;6289582;28;20265;-68
2023/09/27 12:07:14;;;;;;;21.20;10.23;;;;;;;;;;6287633;28;20102;-68
2023/09/27 12:10:14;;;;;;;23.83;10.83;;;;;;;;;;6286651;28;20053;-67
2023/09/27 12:13:15;;;;;;;18.93;10.67;;;;;;;;;;6286469;28;20071;-67
2023/09/27 12:16:17;;;;;;;21.75;9.57;;;;;;;;;;6287592;28;20051;-68
2023/09/27 12:19:17;;;;;;;22.88;9.98;;;;;;;;;;6285824;28;20471;-67
2023/09/27 12:22:19;;;;;;;19.30;9.57;;;;;;;;;;6287677;28;20044;-68
2023/09/27 12:25:21;;;;;;;21.67;9.90;;;;;;;;;;6287085;28;20048;-66
2023/09/27 12:28:22;;;;;;;26.20;10.10;;;;;;;;;;6270267;28;20142;-67
2023/09/27 12:31:23;;;;;;;25.30;9.63;;;;;;;;;;6268893;28;20442;-67
2023/09/27 12:34:24;;;;;;;17.08;9.57;;;;;;;;;;6286439;28;20457;-67
2023/09/27 12:37:25;;;;;;;25.73;10.90;;;;;;;;;;6286746;28;20044;-68
2023/09/27 12:40:26;;;;;;;18.15;9.57;;;;;;;;;;6284449;28;20118;-67
2023/09/27 12:43:27;;;;;;;19.55;10.20;;;;;;;;;;6287309;28;20044;-68
2023/09/27 12:46:28;;;;;;;25.83;11.33;;;;;;;;;;6287848;28;20385;-66
2023/09/27 12:49:29;;;;;;;;;;;;;;;;;;6287360;28;20643;-68
2023/09/27 12:52:31;;;;;;;23.23;10.90;;;;;;;;;;6286541;28;20061;-64
2023/09/27 12:55:32;;;;;;;19.70;10.40;;;;;;;;;;6287588;28;20056;-67
2023/09/27 12:58:34;;;;;;;21.23;10.52;;;;;;;;;;6287283;28;20510;-67
2023/09/27 13:01:35;;;;;;;18.45;10.48;;;;;;;;;;6286141;28;20045;-68
2023/09/27 13:04:36;;;;;;;18.80;10.27;;;;;;;;;;6286870;28;20394;-67
2023/09/27 13:07:36;;;;;;;27.30;11.87;;;;;;;;;;6285755;28;20327;-68
2023/09/27 13:10:38;;;;;;;25.90;10.70;;;;;;;;;;6284738;28;20301;-67
2023/09/27 13:13:39;;;;;;;21.88;11.10;;;;;;;;;;6286457;28;20384;-64
2023/09/27 13:16:39;;;;;;;21.37;11.07;;;;;;;;;;6287105;28;20041;-67
2023/09/27 13:19:40;;;;;;;21.87;11.50;;;;;;;;;;6286627;28;20510;-66
2023/09/27 13:22:41;;;;;;;27.57;11.33;;;;;;;;;;6286743;28;20304;-66
2023/09/27 13:25:52;;;;;;;21.77;11.27;;;;;;;;;;6286206;28;20079;-67
2023/09/27 13:28:53;;;;;;;25.85;11.38;;;;;;;;;;6283012;28;20476;-67
2023/09/27 13:31:54;;;;;;;29.60;12.07;;;;;;;;;;6274940;28;20058;-67
2023/09/27 13:34:54;;;;;;;24.57;11.17;;;;;;;;;;6274867;28;20044;-68
2023/09/27 13:37:55;;;;;;;25.27;11.80;;;;;;;;;;6280587;28;20110;-68
2023/09/27 13:40:55;;;;;;;23.67;10.90;;;;;;;;;;6263383;28;21087;-68
2023/09/27 13:43:56;;;;;;;26.77;11.47;;;;;;;;;;6278392;28;20046;-65
2023/09/27 13:46:57;;;;;;;28.77;11.10;;;;;;;;;;6286988;28;20047;-67
2023/09/27 13:49:58;;;;;;;20.63;10.85;;;;;;;;;;6290494;28;20760;-66
2023/09/27 13:53:00;;;;;;;27.23;12.33;;;;;;;;;;6281898;28;20478;-64
2023/09/27 13:56:01;;;;;;;40.03;14.30;;;;;;;;;;6284831;28;20127;-66
2023/09/27 13:59:03;;;;;;;27.80;12.27;;;;;;;;;;6287000;28;20045;-63
2023/09/27 14:02:06;;;;;;;32.75;12.95;;;;;;;;;;6287388;28;20135;-66
2023/09/27 14:05:08;;;;;;;32.55;13.10;;;;;;;;;;6286363;28;20109;-66
2023/09/27 14:08:08;;;;;;;29.42;13.65;;;;;;;;;;6290555;28;20088;-67
2023/09/27 14:11:16;;;;;;;28.53;13.03;;;;;;;;;;6268702;28;20063;-64
2023/09/27 14:14:18;;;;;;;27.25;12.45;;;;;;;;;;6291446;28;20091;-66
2023/09/27 14:17:19;;;;;;;;;;;;;;;;;;6290920;28;20415;-65
2023/09/27 14:20:20;;;;;;;27.15;13.27;;;;;;;;;;6287657;28;19928;-66
2023/09/27 14:23:21;;;;;;;48.00;16.37;;;;;;;;;;6287645;28;20097;-67
2023/09/27 14:26:21;;;;;;;47.92;15.30;;;;;;;;;;6266147;28;20480;-67
2023/09/27 14:29:22;;;;;;;35.13;14.80;;;;;;;;;;6286258;28;20044;-65
2023/09/27 14:32:23;;;;;;;33.42;13.35;;;;;;;;;;6286439;28;20088;-67
2023/09/27 14:35:23;;;;;;;31.00;13.57;;;;;;;;;;6291305;28;20044;-68
2023/09/27 14:38:26;;;;;;;25.33;13.30;;;;;;;;;;6271275;28;20194;-67
2023/09/27 14:41:28;;;;;;;28.65;12.88;;;;;;;;;;6283738;28;20075;-67
2023/09/27 14:44:32;;;;;;;28.70;14.60;;;;;;;;;;6266551;28;20142;-68
2023/09/27 14:47:33;;;;;;;29.42;13.50;;;;;;;;;;6288813;28;20052;-67
2023/09/27 14:50:34;;;;;;;32.33;14.98;;;;;;;;;;6282289;28;20143;-65
2023/09/27 14:53:34;;;;;;;31.17;14.83;;;;;;;;;;6287014;28;20048;-67
2023/09/27 14:56:35;;;;;;;31.23;15.25;;;;;;;;;;6287212;28;20067;-63
2023/09/27 14:59:36;;;;;;;34.60;16.27;;;;;;;;;;6291540;28;20055;-64
2023/09/27 15:02:36;;;;;;;30.13;14.10;;;;;;;;;;6285634;28;20403;-67
2023/09/27 15:05:38;;;;;;;33.07;15.20;;;;;;;;;;6285875;28;20813;-67
2023/09/27 15:08:39;;;;;;;29.10;14.77;;;;;;;;;;6287852;28;20262;-67
2023/09/27 15:11:39;;;;;;;34.93;14.97;;;;;;;;;;6288875;28;20128;-66
2023/09/27 15:14:40;;;;;;;33.77;16.10;;;;;;;;;;6287448;28;20048;-66
2023/09/27 15:17:42;;;;;;;30.27;15.53;;;;;;;;;;6290304;28;20044;-64
2023/09/27 15:20:45;;;;;;;29.63;15.05;;;;;;;;;;6286919;28;20138;-64
2023/09/27 15:23:45;;;;;;;35.60;15.15;;;;;;;;;;6284505;28;20109;-65
2023/09/27 15:26:46;;;;;;;42.05;15.57;;;;;;;;;;6291180;28;20184;-66
2023/09/27 15:29:47;;;;;;;36.27;17.03;;;;;;;;;;6286084;28;20040;-67
2023/09/27 15:32:48;;;;;;;33.90;15.13;;;;;;;;;;6287319;28;20364;-65
2023/09/27 15:35:58;;;;;;;37.20;16.30;;;;;;;;;;6292229;28;20423;-66
2023/09/27 15:38:59;;;;;;;45.08;18.33;;;;;;;;;;6291129;28;20512;-67
2023/09/27 15:42:00;;;;;;;38.00;15.88;;;;;;;;;;6271312;28;20040;-65
2023/09/27 15:45:08;;;;;;;37.15;16.38;;;;;;;;;;6285774;28;20617;-66
2023/09/27 15:48:08;;;;;;;38.92;17.60;;;;;;;;;;6293975;28;20055;-66
2023/09/27 15:51:11;;;;;;;40.30;16.87;;;;;;;;;;6290655;28;20373;-66
2023/09/27 15:54:12;;;;;;;33.15;17.13;;;;;;;;;;6295227;28;20135;-65
2023/09/27 15:57:12;;;;;;;37.22;18.48;;;;;;;;;;6288319;28;20056;-67
2023/09/27 16:00:14;;;;;;;39.63;17.07;;;;;;;;;;6293464;28;20058;-65
2023/09/27 16:03:14;;;;;;;;;;;;;;;;;;6291373;28;20131;-66
2023/09/27 16:06:19;;;;;;;41.40;17.35;;;;;;;;;;6293296;28;19928;-66
2023/09/27 16:09:20;;;;;;;43.50;18.60;;;;;;;;;;6291141;28;20586;-67
2023/09/27 16:12:21;;;;;;;51.67;19.07;;;;;;;;;;6286709;28;20061;-67
2023/09/27 16:15:24;;;;;;;40.67;18.30;;;;;;;;;;6285431;28;20825;-64
2023/09/27 16:18:29;;;;;;;85.90;22.13;;;;;;;;;;6288395;28;20478;-65
2023/09/27 16:21:30;;;;;;;45.60;18.85;;;;;;;;;;6287737;28;20089;-66
2023/09/27 16:24:31;;;;;;;47.87;19.97;;;;;;;;;;6285653;28;20040;-65
2023/09/27 16:27:32;;;;;;;51.95;21.08;;;;;;;;;;6287861;28;20044;-65
2023/09/27 16:30:33;;;;;;;47.40;19.97;;;;;;;;;;6294556;28;20144;-66
2023/09/27 16:33:36;;;;;;;56.83;21.52;;;;;;;;;;6286721;28;20493;-67
2023/09/27 16:36:37;;;;;;;47.35;20.85;;;;;;;;;;6291006;28;20482;-66
2023/09/27 16:39:38;;;;;;;51.72;22.30;;;;;;;;;;6269920;28;20572;-66
2023/09/27 16:42:39;;;;;;;50.23;21.23;;;;;;;;;;6287990;28;20060;-66
2023/09/27 16:45:40;;;;;;;52.10;22.55;;;;;;;;;;6288576;28;20098;-65
2023/09/27 16:48:41;;;;;;;58.07;24.30;;;;;;;;;;6285847;28;20044;-65
2023/09/27 16:51:42;;;;;;;58.73;25.63;;;;;;;;;;6284028;28;20130;-66
2023/09/27 16:54:42;;;;;;;60.30;24.93;;;;;;;;;;6291470;28;20047;-66
2023/09/27 16:57:43;;;;;;;55.30;24.13;;;;;;;;;;6286051;28;20583;-65
2023/09/27 17:00:46;;;;;;;60.77;25.53;;;;;;;;;;6283188;28;20049;-66
2023/09/27 17:03:48;;;;;;;59.45;23.92;;;;;;;;;;6288553;28;20068;-66
2023/09/27 17:06:48;;;;;;;57.25;24.67;;;;;;;;;;6284006;28;20055;-66
2023/09/27 17:09:49;;;;;;;50.27;22.67;;;;;;;;;;6275699;28;20705;-64
2023/09/27 17:12:50;;;;;;;49.33;22.73;;;;;;;;;;6263263;28;20484;-68
2023/09/27 17:15:50;;;;;;;60.17;23.03;;;;;;;;;;6271773;28;20052;-67
2023/09/27 17:18:54;;;;;;;62.23;24.13;;;;;;;;;;6271898;28;20040;-67
2023/09/27 17:21:55;;;;;;;52.58;21.70;;;;;;;;;;6269594;28;20854;-66
2023/09/27 17:24:56;;;;;;;63.43;22.17;;;;;;;;;;6274552;28;20839;-66
2023/09/27 17:27:57;;;;;;;57.78;23.25;;;;;;;;;;6259552;28;20083;-63
2023/09/27 17:30:58;;;;;;;55.60;23.57;;;;;;;;;;6275848;28;20040;-64
2023/09/27 17:33:59;;;;;;;60.08;23.40;;;;;;;;;;6273204;28;20101;-66
2023/09/27 17:37:00;;;;;;;60.63;23.35;;;;;;;;;;6276187;28;20135;-66
2023/09/27 17:40:07;;;;;;;60.60;24.08;;;;;;;;;;6273030;28;20477;-66